You are not logged in, Click here to log in
ICAO: RJFO Country: 日本大分縣國東市
Latitude: 33.4772 Longitude: 131.733
Total Arrivals: 7 Total Departures: 7
Latest Arrival: JL259T (RJTT-RJFO)Jason. Li Latest Departure: 6LCI112 (RJFO-RCTP)Jason. Li
Scenery: http://www.flightinfo.jp/sfs/
METAR : RJFO 180000Z 18003KT 8000 FEW015 SCT160 BKN/// 27/26 Q1007

大分機場OIT